Giebelstadt Army Air Field ETEU

Flugplatz Daten

Name: Giebelstadt Army Air Field

Ident: ETEU

Lat: 49,64810181

Long: 9,966489792

Platzhöhe: 980 ft

IataCode:

City:

Metar

2020/05/16 16:00
DRZR 161600Z 04010KT 9999 TS FEW040CB SETEUR EST 35/16 Q1008

Taf

Gewünschte Webcam nicht vorhanden? Dann fügen Sie eine hinzu. Sie wird dann so schnell wie möglich freigeschaltet
Url: Title: